createdAt,value
2018-12-25T00:01:25.015Z,87.20
2018-12-25T00:03:57.619Z,87.20
2018-12-25T00:06:30.072Z,87.20
2018-12-25T00:09:02.803Z,87.10
2018-12-25T00:11:35.859Z,86.70
2018-12-25T00:14:08.489Z,85.40
2018-12-25T00:16:40.912Z,84.50
2018-12-25T00:19:13.554Z,84.00
2018-12-25T00:21:45.733Z,83.50
2018-12-25T00:24:18.390Z,83.30
2018-12-25T00:26:51.277Z,83.30
2018-12-25T00:29:23.544Z,83.30
2018-12-25T00:31:56.121Z,83.30
2018-12-25T00:34:28.409Z,83.10
2018-12-25T00:37:00.693Z,82.70
2018-12-25T00:39:33.251Z,82.10
2018-12-25T00:42:05.725Z,81.50
2018-12-25T00:44:38.158Z,81.00
2018-12-25T00:47:10.374Z,80.60
2018-12-25T00:49:42.812Z,80.20
2018-12-25T00:52:15.496Z,80.20
2018-12-25T00:54:48.268Z,80.10
2018-12-25T00:57:20.584Z,80.20
2018-12-25T00:59:52.979Z,80.00
2018-12-25T01:02:25.552Z,80.10
2018-12-25T01:04:58.069Z,80.30
2018-12-25T01:07:30.652Z,80.30
2018-12-25T01:10:03.097Z,80.30
2018-12-25T01:12:35.613Z,80.30
2018-12-25T01:15:08.303Z,80.50
2018-12-25T01:17:40.688Z,80.60
2018-12-25T01:20:13.228Z,80.60
2018-12-25T01:22:45.465Z,80.70
2018-12-25T01:25:18.275Z,80.80
2018-12-25T01:27:50.800Z,80.80
2018-12-25T01:30:22.842Z,80.70
2018-12-25T01:32:54.787Z,80.60
2018-12-25T01:35:27.022Z,80.70
2018-12-25T01:37:59.927Z,80.60
2018-12-25T01:40:32.734Z,80.90
2018-12-25T01:43:05.778Z,81.10
2018-12-25T01:45:38.489Z,81.40
2018-12-25T01:48:10.882Z,81.40
2018-12-25T01:50:43.226Z,81.90
2018-12-25T01:53:15.808Z,81.80
2018-12-25T01:55:48.158Z,81.60
2018-12-25T01:58:20.504Z,81.60
2018-12-25T02:00:52.843Z,82.10
2018-12-25T02:03:25.146Z,82.10
2018-12-25T02:05:57.693Z,82.20
2018-12-25T02:08:30.348Z,82.60
2018-12-25T02:11:03.450Z,82.80
2018-12-25T02:13:35.972Z,82.90
2018-12-25T02:16:08.703Z,83.20
2018-12-25T02:18:41.960Z,83.00
2018-12-25T02:21:14.364Z,82.70
2018-12-25T02:23:47.156Z,82.80
2018-12-25T02:26:19.932Z,82.90
2018-12-25T02:28:53.043Z,82.80
2018-12-25T02:31:25.179Z,83.20
2018-12-25T02:33:58.192Z,83.30
2018-12-25T02:36:31.056Z,83.20
2018-12-25T02:39:03.976Z,83.10
2018-12-25T02:41:36.409Z,82.60
2018-12-25T02:44:09.852Z,82.40
2018-12-25T02:46:42.158Z,82.40
2018-12-25T02:49:14.233Z,82.40
2018-12-25T02:51:46.815Z,82.20
2018-12-25T02:54:19.257Z,82.20
2018-12-25T02:56:51.687Z,82.50
2018-12-25T02:59:24.198Z,82.50
2018-12-25T03:01:56.442Z,82.70
2018-12-25T03:04:28.484Z,83.00
2018-12-25T03:07:00.932Z,82.90
2018-12-25T03:09:34.054Z,83.00
2018-12-25T03:12:07.022Z,83.00
2018-12-25T03:14:40.133Z,83.00
2018-12-25T03:17:12.832Z,83.30
2018-12-25T03:19:45.578Z,83.30
2018-12-25T03:22:18.266Z,83.50
2018-12-25T03:24:51.322Z,83.00
2018-12-25T03:27:23.681Z,83.60
2018-12-25T03:29:56.251Z,83.50
2018-12-25T03:32:29.117Z,83.70
2018-12-25T03:35:01.639Z,83.50
2018-12-25T03:37:34.069Z,83.70
2018-12-25T03:40:06.851Z,84.30
2018-12-25T03:42:39.811Z,84.60
2018-12-25T03:45:12.694Z,84.80
2018-12-25T03:47:46.424Z,84.80
2018-12-25T03:50:19.748Z,84.50
2018-12-25T03:52:52.573Z,84.10
2018-12-25T03:55:24.978Z,83.70
2018-12-25T03:57:57.636Z,83.00
2018-12-25T04:00:30.443Z,82.70
2018-12-25T04:03:03.180Z,82.30
2018-12-25T04:05:35.667Z,81.60
2018-12-25T04:08:08.344Z,81.80
2018-12-25T04:10:40.669Z,81.50
2018-12-25T04:13:13.416Z,82.70
2018-12-25T04:15:46.666Z,83.40
2018-12-25T04:18:18.944Z,83.50
2018-12-25T04:20:51.501Z,83.50
2018-12-25T04:23:23.606Z,83.00
2018-12-25T04:25:56.288Z,83.10
2018-12-25T04:28:28.764Z,83.70
2018-12-25T04:31:01.488Z,84.20
2018-12-25T04:33:34.140Z,84.40
2018-12-25T04:36:06.884Z,84.50
2018-12-25T04:38:39.811Z,84.30
2018-12-25T04:41:12.260Z,84.10
2018-12-25T04:43:44.753Z,83.90
2018-12-25T04:46:17.628Z,83.30
2018-12-25T04:48:49.904Z,83.40
2018-12-25T04:51:22.388Z,83.90
2018-12-25T04:53:55.119Z,84.10
2018-12-25T04:56:27.811Z,83.40
2018-12-25T04:59:00.113Z,82.80
2018-12-25T05:01:32.864Z,82.70
2018-12-25T05:04:04.840Z,82.50
2018-12-25T05:06:37.119Z,82.90
2018-12-25T05:09:10.812Z,83.00
2018-12-25T05:11:43.391Z,82.50
2018-12-25T05:14:15.673Z,82.90
2018-12-25T05:16:48.349Z,83.30
2018-12-25T05:19:21.020Z,82.50
2018-12-25T05:21:53.403Z,82.20
2018-12-25T05:24:28.741Z,82.20
2018-12-25T05:27:01.452Z,82.50
2018-12-25T05:29:34.680Z,83.10
2018-12-25T05:32:06.879Z,83.30
2018-12-25T05:34:39.333Z,82.90
2018-12-25T05:37:11.482Z,83.50
2018-12-25T05:39:43.964Z,83.30
2018-12-25T05:42:18.154Z,83.60
2018-12-25T05:44:50.483Z,83.60
2018-12-25T05:47:23.288Z,83.40
2018-12-25T05:49:55.645Z,82.90
2018-12-25T05:52:28.449Z,82.10
2018-12-25T05:55:01.089Z,81.90
2018-12-25T05:57:33.717Z,81.80
2018-12-25T06:00:07.471Z,81.30
2018-12-25T06:02:40.007Z,80.90
2018-12-25T06:05:12.195Z,80.60
2018-12-25T06:07:44.337Z,80.40
2018-12-25T06:10:16.660Z,80.30
2018-12-25T06:12:49.147Z,79.90
2018-12-25T06:15:21.280Z,79.60
2018-12-25T06:17:53.875Z,79.80
2018-12-25T06:20:26.435Z,80.50
2018-12-25T06:22:59.351Z,80.70
2018-12-25T06:25:31.953Z,80.50
2018-12-25T06:28:04.469Z,79.20
2018-12-25T06:30:37.176Z,78.60
2018-12-25T06:33:10.016Z,78.20
2018-12-25T06:35:42.786Z,77.70
2018-12-25T06:38:15.110Z,78.10
2018-12-25T06:40:47.574Z,80.00
2018-12-25T06:43:19.965Z,79.40
2018-12-25T06:45:52.462Z,78.10
2018-12-25T06:48:24.909Z,78.60
2018-12-25T06:51:03.797Z,80.10
2018-12-25T06:53:31.321Z,82.10
2018-12-25T06:56:04.361Z,83.30
2018-12-25T06:58:36.635Z,84.20
2018-12-25T07:01:09.457Z,83.60
2018-12-25T07:03:41.683Z,82.50
2018-12-25T07:06:14.181Z,81.60
2018-12-25T07:08:47.337Z,81.60
2018-12-25T07:11:20.372Z,80.80
2018-12-25T07:13:53.017Z,81.40
2018-12-25T07:16:25.401Z,80.80
2018-12-25T07:18:58.955Z,80.60
2018-12-25T07:21:31.560Z,82.00
2018-12-25T07:24:04.048Z,82.60
2018-12-25T07:26:36.640Z,82.60
2018-12-25T07:29:09.151Z,80.70
2018-12-25T07:31:41.291Z,81.30
2018-12-25T07:34:13.696Z,82.50
2018-12-25T07:36:46.022Z,82.50
2018-12-25T07:39:18.593Z,82.90
2018-12-25T07:41:51.203Z,83.70
2018-12-25T07:44:23.984Z,83.00
2018-12-25T07:46:56.272Z,81.40
2018-12-25T07:49:28.758Z,81.60
2018-12-25T07:52:01.023Z,82.00
2018-12-25T07:54:33.612Z,82.50
2018-12-25T07:57:06.156Z,82.40
2018-12-25T07:59:39.137Z,81.30
2018-12-25T08:02:11.904Z,81.10
2018-12-25T08:04:44.706Z,81.40
2018-12-25T08:07:17.295Z,81.70
2018-12-25T08:09:49.981Z,82.80
2018-12-25T08:12:22.610Z,82.30
2018-12-25T08:14:55.088Z,81.90
2018-12-25T08:17:27.357Z,81.40
2018-12-25T08:20:00.006Z,81.90
2018-12-25T08:22:32.513Z,81.20
2018-12-25T08:25:04.915Z,81.30
2018-12-25T08:27:37.561Z,82.60
2018-12-25T08:30:10.428Z,81.60
2018-12-25T08:32:43.345Z,81.60
2018-12-25T08:35:16.611Z,82.20
2018-12-25T08:37:49.221Z,82.20
2018-12-25T08:40:22.104Z,82.00
2018-12-25T08:42:54.509Z,82.00
2018-12-25T08:45:27.280Z,81.80
2018-12-25T08:47:59.595Z,81.40
2018-12-25T08:50:33.017Z,80.60
2018-12-25T08:53:05.489Z,80.60
2018-12-25T08:55:38.613Z,81.10
2018-12-25T08:58:11.438Z,81.20
2018-12-25T09:00:43.891Z,81.20
2018-12-25T09:03:16.224Z,81.00
2018-12-25T09:05:48.511Z,81.00
2018-12-25T09:08:21.095Z,81.10
2018-12-25T09:10:53.688Z,81.40
2018-12-25T09:13:25.983Z,81.50
2018-12-25T09:15:58.716Z,80.10
2018-12-25T09:18:31.238Z,80.20
2018-12-25T09:21:03.881Z,80.20
2018-12-25T09:23:36.444Z,80.20
2018-12-25T09:26:09.242Z,80.20
2018-12-25T09:28:41.961Z,80.00
2018-12-25T09:31:14.667Z,80.00
2018-12-25T09:33:47.148Z,79.90
2018-12-25T09:36:19.476Z,79.70
2018-12-25T09:38:51.875Z,79.70
2018-12-25T09:41:24.357Z,78.80
2018-12-25T09:43:56.822Z,78.90
2018-12-25T09:46:29.444Z,79.30
2018-12-25T09:49:02.188Z,80.10
2018-12-25T09:51:35.027Z,80.10
2018-12-25T09:54:08.291Z,81.00
2018-12-25T09:56:40.899Z,80.80
2018-12-25T09:59:13.531Z,80.00
2018-12-25T10:01:46.334Z,79.40
2018-12-25T10:04:18.684Z,78.50
2018-12-25T10:06:51.231Z,76.90
2018-12-25T10:09:23.860Z,78.20
2018-12-25T10:11:56.510Z,78.30
2018-12-25T10:14:28.750Z,79.00
2018-12-25T10:17:01.593Z,78.40
2018-12-25T10:19:34.154Z,79.30
2018-12-25T10:22:07.239Z,79.50
2018-12-25T10:24:39.773Z,78.30
2018-12-25T10:27:12.497Z,76.80
2018-12-25T10:29:44.750Z,77.30
2018-12-25T10:32:17.233Z,77.60
2018-12-25T10:34:49.403Z,77.40
2018-12-25T10:37:22.258Z,77.00
2018-12-25T10:39:54.655Z,76.20
2018-12-25T10:42:26.889Z,77.20
2018-12-25T10:44:59.699Z,77.40
2018-12-25T10:47:31.806Z,76.20
2018-12-25T10:50:04.759Z,77.30
2018-12-25T10:52:37.414Z,75.40
2018-12-25T10:55:10.144Z,75.70
2018-12-25T10:57:42.709Z,75.20
2018-12-25T11:00:16.687Z,75.20
2018-12-25T11:02:49.514Z,75.60
2018-12-25T11:05:22.390Z,75.40
2018-12-25T11:07:54.960Z,75.40
2018-12-25T11:10:27.332Z,76.90
2018-12-25T11:12:59.910Z,79.50
2018-12-25T11:15:32.783Z,78.80
2018-12-25T11:18:05.641Z,78.90
2018-12-25T11:20:38.198Z,80.30
2018-12-25T11:23:10.838Z,80.60
2018-12-25T11:25:43.369Z,80.10
2018-12-25T11:28:15.816Z,79.00
2018-12-25T11:30:48.526Z,77.90
2018-12-25T11:33:20.993Z,78.20
2018-12-25T11:35:53.726Z,79.10
2018-12-25T11:38:26.103Z,78.70
2018-12-25T11:40:58.689Z,78.20
2018-12-25T11:43:31.883Z,78.80
2018-12-25T11:46:04.365Z,78.60
2018-12-25T11:48:37.122Z,78.80
2018-12-25T11:51:09.563Z,79.90
2018-12-25T11:53:42.380Z,79.40
2018-12-25T11:56:14.949Z,78.50
2018-12-25T11:58:48.060Z,79.50
2018-12-25T12:01:20.704Z,78.50
2018-12-25T12:03:53.103Z,79.90
2018-12-25T12:06:25.330Z,79.80
2018-12-25T12:08:57.825Z,79.10
2018-12-25T12:11:30.519Z,78.50
2018-12-25T12:14:03.219Z,78.10
2018-12-25T12:16:35.684Z,77.90
2018-12-25T12:19:08.268Z,76.90
2018-12-25T12:21:40.827Z,78.20
2018-12-25T12:24:13.623Z,79.70
2018-12-25T12:26:45.669Z,80.80
2018-12-25T12:29:18.839Z,80.80
2018-12-25T12:31:51.115Z,79.60
2018-12-25T12:34:23.797Z,78.90
2018-12-25T12:36:55.900Z,79.50
2018-12-25T12:39:28.592Z,79.50
2018-12-25T12:42:00.620Z,79.50
2018-12-25T12:44:33.412Z,79.40
2018-12-25T12:47:05.276Z,78.30
2018-12-25T12:49:38.033Z,78.40
2018-12-25T12:52:10.269Z,78.20
2018-12-25T12:54:42.966Z,77.40
2018-12-25T12:57:15.592Z,76.70
2018-12-25T12:59:48.249Z,76.00
2018-12-25T13:02:20.958Z,75.20
2018-12-25T13:04:54.070Z,74.30
2018-12-25T13:07:26.780Z,75.40
2018-12-25T13:09:59.650Z,77.00
2018-12-25T13:12:31.947Z,77.50
2018-12-25T13:15:04.584Z,77.00
2018-12-25T13:17:36.527Z,76.70
2018-12-25T13:20:09.504Z,76.80
2018-12-25T13:22:41.931Z,76.70
2018-12-25T13:25:14.671Z,76.70
2018-12-25T13:27:46.906Z,77.00
2018-12-25T13:30:19.753Z,77.40
2018-12-25T13:32:52.298Z,78.50
2018-12-25T13:35:25.080Z,79.00
2018-12-25T13:37:57.526Z,79.30
2018-12-25T13:40:29.959Z,79.00
2018-12-25T13:43:01.915Z,78.90
2018-12-25T13:45:34.366Z,78.60
2018-12-25T13:48:06.700Z,78.30
2018-12-25T13:50:39.141Z,77.80
2018-12-25T13:53:11.691Z,78.30
2018-12-25T13:55:44.291Z,78.10
2018-12-25T13:58:17.359Z,78.00
2018-12-25T14:00:50.172Z,77.90
2018-12-25T14:03:22.985Z,77.70
2018-12-25T14:05:55.340Z,77.80
2018-12-25T14:08:27.515Z,77.50
2018-12-25T14:10:59.866Z,77.60
2018-12-25T14:13:32.296Z,77.40
2018-12-25T14:16:05.047Z,77.10
2018-12-25T14:18:37.461Z,77.00
2018-12-25T14:21:09.935Z,76.90
2018-12-25T14:23:42.318Z,76.70
2018-12-25T14:26:14.521Z,76.70
2018-12-25T14:28:46.625Z,76.80
2018-12-25T14:31:19.005Z,76.20
2018-12-25T14:33:51.850Z,75.70
2018-12-25T14:36:24.081Z,76.50
2018-12-25T14:38:56.406Z,76.30
2018-12-25T14:41:28.521Z,75.20
2018-12-25T14:44:05.136Z,75.00
2018-12-25T14:46:34.786Z,74.70
2018-12-25T14:49:07.149Z,74.80
2018-12-25T14:51:40.061Z,73.90
2018-12-25T14:54:12.917Z,73.40
2018-12-25T14:56:45.800Z,72.70
2018-12-25T14:59:18.820Z,72.80
2018-12-25T15:01:51.928Z,73.20
2018-12-25T15:04:24.645Z,73.60
2018-12-25T15:06:57.519Z,73.10
2018-12-25T15:09:30.631Z,73.60
2018-12-25T15:12:03.622Z,73.40
2018-12-25T15:14:36.214Z,72.90
2018-12-25T15:17:09.323Z,72.60
2018-12-25T15:19:42.595Z,72.60
2018-12-25T15:22:16.037Z,73.00
2018-12-25T15:24:49.491Z,72.90
2018-12-25T15:27:22.111Z,73.10
2018-12-25T15:29:54.792Z,72.10
2018-12-25T15:32:27.317Z,71.60
2018-12-25T15:35:00.696Z,71.70
2018-12-25T15:37:33.305Z,71.40
2018-12-25T15:40:05.826Z,72.00
2018-12-25T15:42:38.364Z,71.40
2018-12-25T15:45:11.379Z,71.90
2018-12-25T15:47:44.315Z,71.90
2018-12-25T15:50:17.101Z,71.10
2018-12-25T15:52:49.912Z,70.60
2018-12-25T15:55:22.196Z,70.20
2018-12-25T15:57:54.894Z,70.30
2018-12-25T16:00:27.703Z,69.70
2018-12-25T16:03:00.612Z,69.10
2018-12-25T16:05:33.583Z,68.80
2018-12-25T16:08:05.967Z,67.20
2018-12-25T16:10:38.205Z,68.30
2018-12-25T16:13:10.842Z,67.80
2018-12-25T16:15:43.271Z,68.00
2018-12-25T16:18:15.650Z,67.00
2018-12-25T16:20:48.204Z,67.60
2018-12-25T16:23:21.025Z,66.10
2018-12-25T16:26:12.478Z,65.60
2018-12-25T16:28:45.174Z,64.90
2018-12-25T16:31:17.638Z,65.30
2018-12-25T16:33:50.959Z,64.60
2018-12-25T16:36:23.528Z,64.80
2018-12-25T16:38:56.137Z,65.00
2018-12-25T16:41:28.478Z,64.60
2018-12-25T16:44:01.939Z,63.20
2018-12-25T16:49:10.899Z,61.80
2018-12-25T16:51:43.419Z,62.90
2018-12-25T16:56:52.414Z,62.60
2018-12-25T16:59:25.663Z,61.90
2018-12-25T17:01:58.311Z,62.40
2018-12-25T17:04:30.821Z,63.20
2018-12-25T17:07:03.720Z,61.00
2018-12-25T17:09:36.376Z,61.80
2018-12-25T17:12:09.153Z,61.60
2018-12-25T17:14:41.338Z,59.90
2018-12-25T17:17:14.455Z,59.30
2018-12-25T17:19:46.577Z,59.20
2018-12-25T17:22:19.354Z,60.00
2018-12-25T17:24:51.732Z,58.80
2018-12-25T17:27:24.320Z,59.20
2018-12-25T17:29:56.944Z,58.50
2018-12-25T17:32:29.686Z,58.00
2018-12-25T17:37:49.938Z,56.90
2018-12-25T17:40:22.355Z,57.20
2018-12-25T17:42:54.848Z,57.30
2018-12-25T17:45:27.402Z,56.30
2018-12-25T17:48:00.563Z,56.70
2018-12-25T17:50:33.794Z,56.30
2018-12-25T17:53:06.421Z,56.20
2018-12-25T17:55:38.865Z,55.20
2018-12-25T17:58:11.304Z,54.80
2018-12-25T18:00:43.898Z,56.10
2018-12-25T18:03:16.494Z,56.00
2018-12-25T18:05:49.572Z,55.20
2018-12-25T18:08:22.735Z,55.00
2018-12-25T18:10:55.220Z,54.60
2018-12-25T18:13:27.902Z,54.30
2018-12-25T18:16:00.884Z,54.60
2018-12-25T18:18:34.307Z,54.20
2018-12-25T18:21:07.369Z,54.40
2018-12-25T18:26:15.719Z,54.50
2018-12-25T18:28:48.361Z,54.80
2018-12-25T18:31:20.654Z,54.50
2018-12-25T18:33:53.181Z,54.40
2018-12-25T18:36:26.203Z,54.60
2018-12-25T18:38:58.448Z,54.90
2018-12-25T18:41:30.838Z,54.60
2018-12-25T18:44:03.388Z,53.40
2018-12-25T18:46:35.547Z,51.70
2018-12-25T18:51:43.780Z,52.10
2018-12-25T18:54:16.429Z,50.90
2018-12-25T18:56:48.840Z,50.40
2018-12-25T18:59:21.064Z,50.60
2018-12-25T19:01:53.832Z,50.80
2018-12-25T19:04:26.946Z,50.50
2018-12-25T19:06:59.480Z,50.30
2018-12-25T19:09:32.160Z,51.10
2018-12-25T19:12:05.179Z,51.10
2018-12-25T19:14:38.950Z,51.40
2018-12-25T19:17:11.067Z,50.90
2018-12-25T19:27:43.531Z,52.30
2018-12-25T19:30:17.004Z,52.50
2018-12-25T19:32:50.053Z,52.80
2018-12-25T19:35:23.259Z,52.30
2018-12-25T19:37:56.124Z,50.70
2018-12-25T19:40:29.005Z,50.40
2018-12-25T19:43:01.989Z,50.10
2018-12-25T19:51:05.985Z,53.30
2018-12-25T19:53:38.489Z,53.80
2018-12-25T19:56:11.120Z,54.80
2018-12-25T19:58:43.661Z,55.20
2018-12-25T20:01:16.125Z,55.80
2018-12-25T20:03:55.217Z,56.50
2018-12-25T20:10:08.077Z,57.70
2018-12-25T20:13:31.133Z,58.10
2018-12-25T20:17:02.058Z,58.40
2018-12-25T20:20:14.303Z,59.00
2018-12-25T20:23:41.747Z,59.40
2018-12-25T20:26:50.441Z,60.60
2018-12-25T20:32:44.748Z,60.90
2018-12-25T20:38:43.405Z,62.20
2018-12-25T20:42:10.371Z,62.30
2018-12-25T20:45:25.052Z,62.70
2018-12-25T20:48:42.176Z,62.60
2018-12-25T20:51:49.981Z,62.60
2018-12-25T20:55:01.431Z,63.00
2018-12-25T20:58:04.780Z,63.50
2018-12-25T21:01:12.362Z,64.00
2018-12-25T21:04:13.072Z,64.00
2018-12-25T21:07:20.380Z,64.10
2018-12-25T21:10:35.338Z,63.10
2018-12-25T21:13:30.139Z,62.70
2018-12-25T21:16:48.462Z,62.80
2018-12-25T21:20:15.696Z,63.00
2018-12-25T21:23:21.983Z,63.30
2018-12-25T21:28:30.088Z,64.70
2018-12-25T21:33:51.453Z,65.60
2018-12-25T21:36:23.955Z,65.60
2018-12-25T21:38:56.328Z,65.80
2018-12-25T21:41:28.502Z,66.00
2018-12-25T21:44:00.949Z,66.40
2018-12-25T21:46:33.464Z,66.60
2018-12-25T21:49:06.096Z,67.00
2018-12-25T21:51:39.534Z,67.50
2018-12-25T21:54:12.317Z,67.90
2018-12-25T21:56:44.879Z,68.90
2018-12-25T21:59:17.506Z,69.40
2018-12-25T22:01:50.942Z,69.60
2018-12-25T22:04:23.813Z,69.60
2018-12-25T22:06:56.337Z,69.70
2018-12-25T22:09:28.819Z,69.90
2018-12-25T22:12:01.020Z,70.00
2018-12-25T22:17:09.837Z,70.60
2018-12-25T22:19:41.884Z,71.20
2018-12-25T22:22:14.271Z,70.90
2018-12-25T22:27:22.509Z,71.30
2018-12-25T22:29:54.702Z,71.80
2018-12-25T22:32:27.636Z,72.00
2018-12-25T22:35:00.931Z,72.40
2018-12-25T22:37:33.749Z,73.10
2018-12-25T22:40:06.313Z,73.70
2018-12-25T22:42:38.896Z,73.90
2018-12-25T22:47:46.984Z,73.40
2018-12-25T22:50:19.242Z,73.40
2018-12-25T22:52:51.549Z,73.40
2018-12-25T22:57:59.898Z,73.00
2018-12-25T23:00:33.249Z,73.10
2018-12-25T23:03:06.542Z,73.30
2018-12-25T23:05:45.703Z,73.40
2018-12-25T23:08:18.972Z,74.00
2018-12-25T23:10:52.026Z,74.50
2018-12-25T23:13:24.886Z,74.00
2018-12-25T23:15:57.664Z,73.40
2018-12-25T23:21:25.837Z,73.00
2018-12-25T23:23:58.715Z,72.80
2018-12-25T23:26:31.276Z,72.50
2018-12-25T23:29:03.640Z,72.40
2018-12-25T23:31:36.223Z,72.20
2018-12-25T23:34:08.280Z,72.20
2018-12-25T23:36:40.831Z,72.40
2018-12-25T23:39:13.749Z,73.00
2018-12-25T23:41:46.489Z,72.80
2018-12-25T23:46:47.469Z,74.70
2018-12-25T23:49:19.971Z,75.80
2018-12-25T23:51:52.347Z,77.40
2018-12-25T23:54:25.140Z,77.70
2018-12-25T23:56:58.420Z,77.70
2018-12-25T23:59:30.914Z,77.50
